sensor_id;sensor_type;location;lat;lon;timestamp;pressure;altitude;pressure_sealevel;temperature;humidity
83152;BME280;73381;58.502;8.624;2024-01-25T00:01:54;99182.75;;;6.78;51.19
83152;BME280;73381;58.502;8.624;2024-01-25T00:04:56;99215.09;;;6.68;51.57
83152;BME280;73381;58.502;8.624;2024-01-25T00:08:01;99110.13;;;5.70;51.62
83152;BME280;73381;58.502;8.624;2024-01-25T00:11:04;99218.94;;;6.52;50.88
83152;BME280;73381;58.502;8.624;2024-01-25T00:14:06;99255.66;;;6.64;51.03
83152;BME280;73381;58.502;8.624;2024-01-25T00:17:08;99251.84;;;6.45;51.81
83152;BME280;73381;58.502;8.624;2024-01-25T00:20:11;99281.41;;;6.47;51.64
83152;BME280;73381;58.502;8.624;2024-01-25T00:23:15;99268.53;;;6.33;52.49
83152;BME280;73381;58.502;8.624;2024-01-25T00:26:17;99289.38;;;6.46;51.76
83152;BME280;73381;58.502;8.624;2024-01-25T00:29:19;99289.63;;;6.43;51.72
83152;BME280;73381;58.502;8.624;2024-01-25T00:32:21;99298.56;;;6.29;53.10
83152;BME280;73381;58.502;8.624;2024-01-25T00:38:46;99101.19;;;5.17;52.46
83152;BME280;73381;58.502;8.624;2024-01-25T00:41:51;98917.41;;;3.88;52.85
83152;BME280;73381;58.502;8.624;2024-01-25T00:44:54;99222.03;;;5.68;52.47
83152;BME280;73381;58.502;8.624;2024-01-25T00:48:01;99323.38;;;6.25;52.94
83152;BME280;73381;58.502;8.624;2024-01-25T00:51:07;99112.53;;;4.82;52.83
83152;BME280;73381;58.502;8.624;2024-01-25T00:54:11;99215.13;;;5.56;53.19
83152;BME280;73381;58.502;8.624;2024-01-25T00:57:13;99203.44;;;5.49;53.37
83152;BME280;73381;58.502;8.624;2024-01-25T01:00:17;99350.53;;;6.13;53.04
83152;BME280;73381;58.502;8.624;2024-01-25T01:03:20;99318.09;;;6.03;53.37
83152;BME280;73381;58.502;8.624;2024-01-25T01:06:23;99389.38;;;6.08;52.98
83152;BME280;73381;58.502;8.624;2024-01-25T01:09:27;99364.34;;;6.15;52.71
83152;BME280;73381;58.502;8.624;2024-01-25T01:12:30;99388.44;;;6.20;52.57
83152;BME280;73381;58.502;8.624;2024-01-25T01:15:32;99373.06;;;6.27;51.40
83152;BME280;73381;58.502;8.624;2024-01-25T01:18:34;99396.28;;;6.31;51.35
83152;BME280;73381;58.502;8.624;2024-01-25T01:21:37;99384.84;;;6.10;50.99
83152;BME280;73381;58.502;8.624;2024-01-25T01:24:41;99442.66;;;6.31;51.12
83152;BME280;73381;58.502;8.624;2024-01-25T01:27:43;99250.22;;;5.07;50.97
83152;BME280;73381;58.502;8.624;2024-01-25T01:30:46;99299.91;;;5.31;50.66
83152;BME280;73381;58.502;8.624;2024-01-25T01:33:50;99345.28;;;5.43;50.54
83152;BME280;73381;58.502;8.624;2024-01-25T01:36:52;99307.56;;;5.10;51.85
83152;BME280;73381;58.502;8.624;2024-01-25T01:39:56;99497.31;;;6.13;50.79
83152;BME280;73381;58.502;8.624;2024-01-25T01:42:59;99504.09;;;6.15;51.02
83152;BME280;73381;58.502;8.624;2024-01-25T01:46:06;99511.25;;;6.13;51.31
83152;BME280;73381;58.502;8.624;2024-01-25T01:49:17;99511.66;;;6.20;51.50
83152;BME280;73381;58.502;8.624;2024-01-25T01:52:19;99425.50;;;5.44;51.42
83152;BME280;73381;58.502;8.624;2024-01-25T01:55:23;99404.00;;;5.27;51.26
83152;BME280;73381;58.502;8.624;2024-01-25T01:58:26;99543.09;;;6.20;51.02
83152;BME280;73381;58.502;8.624;2024-01-25T02:01:31;99436.91;;;5.43;50.35
83152;BME280;73381;58.502;8.624;2024-01-25T02:04:34;99563.50;;;6.04;51.09
83152;BME280;73381;58.502;8.624;2024-01-25T02:07:37;99588.00;;;5.91;52.92
83152;BME280;73381;58.502;8.624;2024-01-25T02:10:40;99597.53;;;5.80;53.11
83152;BME280;73381;58.502;8.624;2024-01-25T02:13:42;99547.59;;;5.57;52.59
83152;BME280;73381;58.502;8.624;2024-01-25T02:16:45;99606.03;;;5.71;53.40
83152;BME280;73381;58.502;8.624;2024-01-25T02:19:47;99606.50;;;5.39;54.13
83152;BME280;73381;58.502;8.624;2024-01-25T02:22:52;99640.81;;;5.47;53.67
83152;BME280;73381;58.502;8.624;2024-01-25T02:29:07;99594.13;;;5.03;53.59
83152;BME280;73381;58.502;8.624;2024-01-25T02:32:14;99417.38;;;3.84;52.82
83152;BME280;73381;58.502;8.624;2024-01-25T02:35:17;99414.66;;;3.86;52.08
83152;BME280;73381;58.502;8.624;2024-01-25T02:38:20;99685.22;;;5.74;51.48
83152;BME280;73381;58.502;8.624;2024-01-25T02:41:24;99701.88;;;5.60;52.73
83152;BME280;73381;58.502;8.624;2024-01-25T02:44:29;99548.69;;;4.53;52.09
83152;BME280;73381;58.502;8.624;2024-01-25T02:47:32;99668.50;;;5.39;50.85
83152;BME280;73381;58.502;8.624;2024-01-25T02:50:34;99637.69;;;5.17;51.24
83152;BME280;73381;58.502;8.624;2024-01-25T02:59:51;99672.84;;;5.00;51.51
83152;BME280;73381;58.502;8.624;2024-01-25T03:02:54;99742.00;;;5.35;51.49
83152;BME280;73381;58.502;8.624;2024-01-25T03:09:22;99723.44;;;5.13;51.50
83152;BME280;73381;58.502;8.624;2024-01-25T03:12:25;99780.44;;;5.35;52.68
83152;BME280;73381;58.502;8.624;2024-01-25T03:15:30;99789.00;;;5.24;51.88
83152;BME280;73381;58.502;8.624;2024-01-25T03:18:33;99710.13;;;4.76;51.52
83152;BME280;73381;58.502;8.624;2024-01-25T03:21:36;99808.78;;;5.28;52.09
83152;BME280;73381;58.502;8.624;2024-01-25T03:24:39;99477.72;;;2.97;51.11
83152;BME280;73381;58.502;8.624;2024-01-25T03:27:42;99405.84;;;2.51;51.92
83152;BME280;73381;58.502;8.624;2024-01-25T03:30:49;99853.97;;;5.18;51.13
83152;BME280;73381;58.502;8.624;2024-01-25T03:33:51;99807.16;;;4.86;51.61
83152;BME280;73381;58.502;8.624;2024-01-25T03:36:54;99866.84;;;5.08;51.17
83152;BME280;73381;58.502;8.624;2024-01-25T03:39:57;99884.78;;;5.00;52.31
83152;BME280;73381;58.502;8.624;2024-01-25T03:53:05;99897.38;;;4.38;53.58
83152;BME280;73381;58.502;8.624;2024-01-25T03:56:15;99875.50;;;4.25;53.75
83152;BME280;73381;58.502;8.624;2024-01-25T03:59:25;99827.78;;;3.93;52.39
83152;BME280;73381;58.502;8.624;2024-01-25T04:02:26;99940.59;;;5.00;50.63
83152;BME280;73381;58.502;8.624;2024-01-25T04:08:37;99857.00;;;4.56;50.54
83152;BME280;73381;58.502;8.624;2024-01-25T04:15:05;99973.47;;;4.90;51.68
83152;BME280;73381;58.502;8.624;2024-01-25T04:18:08;99858.41;;;4.19;51.92
83152;BME280;73381;58.502;8.624;2024-01-25T04:21:11;99729.13;;;3.25;52.10
83152;BME280;73381;58.502;8.624;2024-01-25T04:27:42;100014.06;;;4.39;54.78
83152;BME280;73381;58.502;8.624;2024-01-25T04:30:45;100047.94;;;4.70;52.23
83152;BME280;73381;58.502;8.624;2024-01-25T04:33:46;100033.38;;;4.81;52.17
83152;BME280;73381;58.502;8.624;2024-01-25T04:36:53;100032.78;;;4.75;52.76
83152;BME280;73381;58.502;8.624;2024-01-25T04:40:04;100012.25;;;4.84;51.54
83152;BME280;73381;58.502;8.624;2024-01-25T04:43:07;99926.84;;;4.26;51.46
83152;BME280;73381;58.502;8.624;2024-01-25T04:46:09;99982.09;;;4.34;51.21
83152;BME280;73381;58.502;8.624;2024-01-25T04:49:12;100019.50;;;4.50;52.03
83152;BME280;73381;58.502;8.624;2024-01-25T04:52:17;99956.88;;;4.18;51.90
83152;BME280;73381;58.502;8.624;2024-01-25T04:55:20;100035.53;;;4.44;53.25
83152;BME280;73381;58.502;8.624;2024-01-25T05:01:41;100081.38;;;4.65;53.23
83152;BME280;73381;58.502;8.624;2024-01-25T05:04:44;99968.63;;;3.66;54.53
83152;BME280;73381;58.502;8.624;2024-01-25T05:07:47;99994.66;;;3.51;53.52
83152;BME280;73381;58.502;8.624;2024-01-25T05:10:49;100129.50;;;4.31;55.53
83152;BME280;73381;58.502;8.624;2024-01-25T05:13:51;100130.19;;;4.35;54.60
83152;BME280;73381;58.502;8.624;2024-01-25T05:16:54;100097.75;;;4.07;54.82
83152;BME280;73381;58.502;8.624;2024-01-25T05:19:56;100097.94;;;4.04;55.22
83152;BME280;73381;58.502;8.624;2024-01-25T05:22:58;100153.22;;;4.28;55.27
83152;BME280;73381;58.502;8.624;2024-01-25T05:26:00;100159.97;;;4.32;55.11
83152;BME280;73381;58.502;8.624;2024-01-25T05:29:02;100161.41;;;4.38;54.96
83152;BME280;73381;58.502;8.624;2024-01-25T05:32:05;100178.25;;;4.32;55.01
83152;BME280;73381;58.502;8.624;2024-01-25T05:35:08;100169.16;;;4.24;55.46
83152;BME280;73381;58.502;8.624;2024-01-25T05:38:10;100186.00;;;4.34;54.82
83152;BME280;73381;58.502;8.624;2024-01-25T05:41:12;100186.69;;;4.37;53.72
83152;BME280;73381;58.502;8.624;2024-01-25T05:44:14;100195.88;;;4.44;53.85
83152;BME280;73381;58.502;8.624;2024-01-25T05:47:17;100193.44;;;4.26;54.84
83152;BME280;73381;58.502;8.624;2024-01-25T05:50:19;100213.44;;;4.42;53.98
83152;BME280;73381;58.502;8.624;2024-01-25T05:53:21;100234.44;;;4.41;54.49
83152;BME280;73381;58.502;8.624;2024-01-25T05:56:24;100247.41;;;4.27;55.50
83152;BME280;73381;58.502;8.624;2024-01-25T05:59:31;100054.00;;;2.83;54.87
83152;BME280;73381;58.502;8.624;2024-01-25T06:02:39;100261.91;;;4.32;54.67
83152;BME280;73381;58.502;8.624;2024-01-25T06:05:42;100256.53;;;4.51;54.12
83152;BME280;73381;58.502;8.624;2024-01-25T06:08:44;100256.34;;;4.54;53.97
83152;BME280;73381;58.502;8.624;2024-01-25T06:11:59;100236.44;;;4.36;53.46
83152;BME280;73381;58.502;8.624;2024-01-25T06:15:01;100266.47;;;4.44;54.77
83152;BME280;73381;58.502;8.624;2024-01-25T06:18:05;100155.47;;;3.71;53.88
83152;BME280;73381;58.502;8.624;2024-01-25T06:21:06;100279.06;;;4.54;53.69
83152;BME280;73381;58.502;8.624;2024-01-25T06:24:08;100288.50;;;4.56;54.06
83152;BME280;73381;58.502;8.624;2024-01-25T06:27:10;100292.78;;;4.57;53.71
83152;BME280;73381;58.502;8.624;2024-01-25T06:30:14;100292.97;;;4.54;53.68
83152;BME280;73381;58.502;8.624;2024-01-25T06:33:18;100260.22;;;4.15;54.00
83152;BME280;73381;58.502;8.624;2024-01-25T06:36:20;100208.94;;;3.97;52.94
83152;BME280;73381;58.502;8.624;2024-01-25T06:39:22;100307.66;;;4.57;53.20
83152;BME280;73381;58.502;8.624;2024-01-25T06:42:25;100295.81;;;4.50;52.98
83152;BME280;73381;58.502;8.624;2024-01-25T06:45:27;100264.28;;;4.37;52.50
83152;BME280;73381;58.502;8.624;2024-01-25T06:48:30;100326.78;;;4.57;53.10
83152;BME280;73381;58.502;8.624;2024-01-25T06:51:36;100314.56;;;4.42;53.00
83152;BME280;73381;58.502;8.624;2024-01-25T06:54:56;100348.19;;;4.48;52.75
83152;BME280;73381;58.502;8.624;2024-01-25T06:57:58;100154.13;;;3.31;52.45
83152;BME280;73381;58.502;8.624;2024-01-25T07:01:00;100324.56;;;4.34;52.53
83152;BME280;73381;58.502;8.624;2024-01-25T07:04:04;100351.25;;;4.40;53.31
83152;BME280;73381;58.502;8.624;2024-01-25T07:07:06;100355.28;;;4.46;52.79
83152;BME280;73381;58.502;8.624;2024-01-25T07:10:08;100363.91;;;4.15;54.84
83152;BME280;73381;58.502;8.624;2024-01-25T07:13:11;100357.28;;;4.08;54.26
83152;BME280;73381;58.502;8.624;2024-01-25T07:16:20;100284.75;;;3.63;53.65
83152;BME280;73381;58.502;8.624;2024-01-25T07:19:24;100373.50;;;4.14;53.84
83152;BME280;73381;58.502;8.624;2024-01-25T07:22:26;100378.81;;;4.13;54.09
83152;BME280;73381;58.502;8.624;2024-01-25T07:25:28;100388.59;;;4.09;53.41
83152;BME280;73381;58.502;8.624;2024-01-25T07:28:31;100385.59;;;4.00;54.09
83152;BME280;73381;58.502;8.624;2024-01-25T07:31:40;100381.06;;;4.03;54.21
83152;BME280;73381;58.502;8.624;2024-01-25T07:34:56;100387.75;;;4.09;53.25
83152;BME280;73381;58.502;8.624;2024-01-25T07:37:58;100346.28;;;3.68;53.35
83152;BME280;73381;58.502;8.624;2024-01-25T07:41:00;100414.44;;;3.81;55.21
83152;BME280;73381;58.502;8.624;2024-01-25T07:44:02;100413.59;;;3.80;55.37
83152;BME280;73381;58.502;8.624;2024-01-25T07:47:04;100422.88;;;3.69;55.52
83152;BME280;73381;58.502;8.624;2024-01-25T07:50:09;100425.75;;;3.63;55.17
83152;BME280;73381;58.502;8.624;2024-01-25T07:53:15;100432.66;;;3.64;55.48
83152;BME280;73381;58.502;8.624;2024-01-25T07:56:21;100100.31;;;1.71;54.87
83152;BME280;73381;58.502;8.624;2024-01-25T08:02:52;100266.09;;;2.65;54.68
83152;BME280;73381;58.502;8.624;2024-01-25T08:05:56;100319.19;;;3.00;54.16
83152;BME280;73381;58.502;8.624;2024-01-25T08:12:24;100346.50;;;2.74;53.89
83152;BME280;73381;58.502;8.624;2024-01-25T08:15:26;100470.16;;;3.80;54.32
83152;BME280;73381;58.502;8.624;2024-01-25T08:18:28;100473.78;;;3.77;54.77
83152;BME280;73381;58.502;8.624;2024-01-25T08:21:31;100468.03;;;3.71;54.51
83152;BME280;73381;58.502;8.624;2024-01-25T08:24:33;100502.84;;;3.88;54.20
83152;BME280;73381;58.502;8.624;2024-01-25T08:27:35;100273.16;;;2.44;54.14
83152;BME280;73381;58.502;8.624;2024-01-25T08:43:17;100497.19;;;3.98;54.03
83152;BME280;73381;58.502;8.624;2024-01-25T08:46:20;100379.22;;;3.17;54.70
83152;BME280;73381;58.502;8.624;2024-01-25T08:52:33;100494.91;;;4.09;53.39
83152;BME280;73381;58.502;8.624;2024-01-25T08:56:00;100051.50;;;1.20;53.17
83152;BME280;73381;58.502;8.624;2024-01-25T08:59:09;100500.31;;;4.04;53.80
83152;BME280;73381;58.502;8.624;2024-01-25T09:05:16;100287.28;;;2.76;53.55
83152;BME280;73381;58.502;8.624;2024-01-25T09:08:25;100217.81;;;2.20;53.14
83152;BME280;73381;58.502;8.624;2024-01-25T09:14:41;100107.47;;;1.66;53.13
83152;BME280;73381;58.502;8.624;2024-01-25T09:17:45;100227.03;;;2.46;53.06
83152;BME280;73381;58.502;8.624;2024-01-25T09:20:50;100512.88;;;3.98;55.24
83152;BME280;73381;58.502;8.624;2024-01-25T09:27:09;100518.03;;;4.16;53.04
83152;BME280;73381;58.502;8.624;2024-01-25T09:33:29;100324.75;;;2.92;53.18
83152;BME280;73381;58.502;8.624;2024-01-25T09:36:37;100224.88;;;2.18;53.03
83152;BME280;73381;58.502;8.624;2024-01-25T09:43:28;100574.56;;;4.36;51.91
83152;BME280;73381;58.502;8.624;2024-01-25T09:46:37;100527.41;;;4.38;51.95
83152;BME280;73381;58.502;8.624;2024-01-25T09:49:57;100222.81;;;2.25;52.19
83152;BME280;73381;58.502;8.624;2024-01-25T09:53:22;100312.63;;;2.91;52.58
83152;BME280;73381;58.502;8.624;2024-01-25T09:56:28;100144.78;;;1.86;52.27
83152;BME280;73381;58.502;8.624;2024-01-25T10:12:49;100088.81;;;1.38;51.58
83152;BME280;73381;58.502;8.624;2024-01-25T10:15:59;100576.78;;;4.61;51.92
83152;BME280;73381;58.502;8.624;2024-01-25T10:19:01;100588.31;;;4.57;52.29
83152;BME280;73381;58.502;8.624;2024-01-25T10:22:08;100588.09;;;4.62;52.21
83152;BME280;73381;58.502;8.624;2024-01-25T10:31:58;100558.06;;;4.34;52.44
83152;BME280;73381;58.502;8.624;2024-01-25T10:35:01;100507.31;;;3.86;52.86
83152;BME280;73381;58.502;8.624;2024-01-25T10:38:04;100534.59;;;3.98;53.35
83152;BME280;73381;58.502;8.624;2024-01-25T10:47:25;100211.50;;;1.88;52.18
83152;BME280;73381;58.502;8.624;2024-01-25T10:50:32;100451.25;;;3.57;51.93
83152;BME280;73381;58.502;8.624;2024-01-25T10:57:06;100649.84;;;4.64;52.86
83152;BME280;73381;58.502;8.624;2024-01-25T11:03:25;100199.66;;;1.81;52.43
83152;BME280;73381;58.502;8.624;2024-01-25T11:06:52;100423.38;;;3.22;51.94
83152;BME280;73381;58.502;8.624;2024-01-25T11:26:27;100537.03;;;4.37;52.43
83152;BME280;73381;58.502;8.624;2024-01-25T11:29:30;100556.78;;;4.60;52.38
83152;BME280;73381;58.502;8.624;2024-01-25T11:32:33;100189.25;;;2.19;52.54
83152;BME280;73381;58.502;8.624;2024-01-25T11:35:38;100611.84;;;5.09;51.31
83152;BME280;73381;58.502;8.624;2024-01-25T11:38:45;100179.59;;;2.40;50.85
83152;BME280;73381;58.502;8.624;2024-01-25T11:41:51;100627.50;;;5.26;51.10
83152;BME280;73381;58.502;8.624;2024-01-25T11:44:54;100093.09;;;1.95;52.08
83152;BME280;73381;58.502;8.624;2024-01-25T12:14:37;100638.44;;;5.83;49.24
83152;BME280;73381;58.502;8.624;2024-01-25T12:20:58;100180.53;;;3.08;49.06
83152;BME280;73381;58.502;8.624;2024-01-25T12:24:11;100180.63;;;2.89;51.29
83152;BME280;73381;58.502;8.624;2024-01-25T12:33:56;100645.41;;;6.00;49.61
83152;BME280;73381;58.502;8.624;2024-01-25T12:50:08;100459.34;;;5.53;54.08
83152;BME280;73381;58.502;8.624;2024-01-25T12:53:10;100613.16;;;6.60;52.66
83152;BME280;73381;58.502;8.624;2024-01-25T13:02:39;100563.44;;;6.42;53.98
83152;BME280;73381;58.502;8.624;2024-01-25T13:05:47;100387.97;;;5.33;52.25
83152;BME280;73381;58.502;8.624;2024-01-25T13:27:47;100501.28;;;6.73;52.00
83152;BME280;73381;58.502;8.624;2024-01-25T13:34:07;100486.22;;;6.76;51.16
83152;BME280;73381;58.502;8.624;2024-01-25T13:37:12;100186.75;;;4.97;51.74
83152;BME280;73381;58.502;8.624;2024-01-25T13:43:24;100652.13;;;7.83;50.15
83152;BME280;73381;58.502;8.624;2024-01-25T13:46:26;100295.81;;;5.57;50.64
83152;BME280;73381;58.502;8.624;2024-01-25T13:49:28;100411.59;;;6.38;50.86
83152;BME280;73381;58.502;8.624;2024-01-25T13:52:33;100210.03;;;5.02;49.67
83152;BME280;73381;58.502;8.624;2024-01-25T13:59:07;100248.66;;;5.13;50.63
83152;BME280;73381;58.502;8.624;2024-01-25T14:02:11;100665.25;;;7.83;50.11
83152;BME280;73381;58.502;8.624;2024-01-25T14:05:13;100576.25;;;7.21;50.31
83152;BME280;73381;58.502;8.624;2024-01-25T14:08:20;100485.63;;;6.71;49.71
83152;BME280;73381;58.502;8.624;2024-01-25T14:14:43;100420.47;;;6.21;50.47
83152;BME280;73381;58.502;8.624;2024-01-25T14:17:46;100194.97;;;4.75;50.40
83152;BME280;73381;58.502;8.624;2024-01-25T14:37:03;100672.03;;;7.58;51.35
83152;BME280;73381;58.502;8.624;2024-01-25T14:43:20;100671.38;;;7.55;50.89
83152;BME280;73381;58.502;8.624;2024-01-25T15:25:47;100508.25;;;4.03;56.24
83152;BME280;73381;58.502;8.624;2024-01-25T15:31:56;100182.97;;;1.66;56.71
83152;BME280;73381;58.502;8.624;2024-01-25T15:35:01;100361.03;;;2.22;56.20
83152;BME280;73381;58.502;8.624;2024-01-25T15:47:39;100374.16;;;1.59;59.67
83152;BME280;73381;58.502;8.624;2024-01-25T15:57:06;100723.88;;;3.13;60.75
83152;BME280;73381;58.502;8.624;2024-01-25T16:00:08;100700.28;;;2.74;61.11
83152;BME280;73381;58.502;8.624;2024-01-25T16:03:11;100737.47;;;2.79;62.13
83152;BME280;73381;58.502;8.624;2024-01-25T16:13:08;100428.06;;;0.43;63.19
83152;BME280;73381;58.502;8.624;2024-01-25T16:19:47;100717.91;;;1.78;64.29
83152;BME280;73381;58.502;8.624;2024-01-25T16:35:48;100740.53;;;1.28;66.27
83152;BME280;73381;58.502;8.624;2024-01-25T16:38:58;100573.72;;;-0.16;66.74
83152;BME280;73381;58.502;8.624;2024-01-25T16:45:47;100569.78;;;-0.27;66.42
83152;BME280;73381;58.502;8.624;2024-01-25T16:48:53;100541.22;;;-0.55;66.74
83152;BME280;73381;58.502;8.624;2024-01-25T16:52:24;100214.72;;;-2.91;67.09
83152;BME280;73381;58.502;8.624;2024-01-25T16:55:38;100647.22;;;-0.14;68.06
83152;BME280;73381;58.502;8.624;2024-01-25T16:58:41;100786.59;;;0.43;68.42
83152;BME280;73381;58.502;8.624;2024-01-25T17:14:23;100770.16;;;-0.18;71.17
83152;BME280;73381;58.502;8.624;2024-01-25T17:17:26;100740.59;;;-0.43;71.19
83152;BME280;73381;58.502;8.624;2024-01-25T17:20:30;100749.22;;;-0.43;71.26
83152;BME280;73381;58.502;8.624;2024-01-25T17:26:51;100767.09;;;-0.32;71.18
83152;BME280;73381;58.502;8.624;2024-01-25T17:29:56;100758.22;;;-0.54;71.12
83152;BME280;73381;58.502;8.624;2024-01-25T17:36:27;100766.53;;;-0.76;72.35
83152;BME280;73381;58.502;8.624;2024-01-25T17:39:30;100765.06;;;-0.84;72.01
83152;BME280;73381;58.502;8.624;2024-01-25T17:42:33;100550.84;;;-2.22;73.14
83152;BME280;73381;58.502;8.624;2024-01-25T17:45:36;100757.66;;;-1.01;73.76
83152;BME280;73381;58.502;8.624;2024-01-25T17:48:41;100757.63;;;-0.98;72.90
83152;BME280;73381;58.502;8.624;2024-01-25T17:51:47;100710.16;;;-1.36;72.87
83152;BME280;73381;58.502;8.624;2024-01-25T17:57:52;100685.13;;;-1.72;74.03
83152;BME280;73381;58.502;8.624;2024-01-25T18:07:29;100138.38;;;-5.37;73.31
83152;BME280;73381;58.502;8.624;2024-01-25T18:10:33;100679.75;;;-2.44;73.90
83152;BME280;73381;58.502;8.624;2024-01-25T18:13:35;100694.31;;;-1.98;74.32
83152;BME280;73381;58.502;8.624;2024-01-25T18:16:37;100499.47;;;-3.16;73.92
83152;BME280;73381;58.502;8.624;2024-01-25T18:19:41;100767.06;;;-1.71;74.50
83152;BME280;73381;58.502;8.624;2024-01-25T18:22:44;100575.34;;;-2.78;74.38
83152;BME280;73381;58.502;8.624;2024-01-25T18:25:47;100540.34;;;-2.93;75.50
83152;BME280;73381;58.502;8.624;2024-01-25T18:28:50;100740.94;;;-1.61;75.37
83152;BME280;73381;58.502;8.624;2024-01-25T18:38:21;100737.34;;;-1.92;75.50
83152;BME280;73381;58.502;8.624;2024-01-25T18:41:24;100738.53;;;-2.07;76.00
83152;BME280;73381;58.502;8.624;2024-01-25T18:44:26;100485.59;;;-3.55;75.98
83152;BME280;73381;58.502;8.624;2024-01-25T18:47:28;100396.31;;;-4.10;76.88
83152;BME280;73381;58.502;8.624;2024-01-25T18:50:30;100746.28;;;-2.07;75.80
83152;BME280;73381;58.502;8.624;2024-01-25T18:56:50;100728.19;;;-2.08;77.28
83152;BME280;73381;58.502;8.624;2024-01-25T19:02:56;100690.69;;;-2.29;76.82
83152;BME280;73381;58.502;8.624;2024-01-25T19:09:26;100527.94;;;-3.64;77.29
83152;BME280;73381;58.502;8.624;2024-01-25T19:12:35;100227.97;;;-5.60;76.27
83152;BME280;73381;58.502;8.624;2024-01-25T19:15:38;100738.28;;;-2.40;77.84
83152;BME280;73381;58.502;8.624;2024-01-25T19:21:54;100423.38;;;-4.34;77.85
83152;BME280;73381;58.502;8.624;2024-01-25T19:28:08;100742.66;;;-2.42;77.32
83152;BME280;73381;58.502;8.624;2024-01-25T19:31:10;100676.72;;;-3.09;77.35
83152;BME280;73381;58.502;8.624;2024-01-25T19:34:16;100539.16;;;-3.68;78.14
83152;BME280;73381;58.502;8.624;2024-01-25T19:37:19;100382.09;;;-4.83;78.31
83152;BME280;73381;58.502;8.624;2024-01-25T19:40:23;100682.25;;;-2.84;78.03
83152;BME280;73381;58.502;8.624;2024-01-25T19:46:48;100178.72;;;-5.92;77.04
83152;BME280;73381;58.502;8.624;2024-01-25T19:49:51;100727.63;;;-2.66;77.60
83152;BME280;73381;58.502;8.624;2024-01-25T19:59:42;100401.75;;;-4.76;79.94
83152;BME280;73381;58.502;8.624;2024-01-25T20:05:58;100132.19;;;-6.31;79.54
83152;BME280;73381;58.502;8.624;2024-01-25T20:12:18;100342.97;;;-5.08;79.80
83152;BME280;73381;58.502;8.624;2024-01-25T20:15:27;100585.16;;;-3.42;79.48
83152;BME280;73381;58.502;8.624;2024-01-25T20:18:33;100366.38;;;-4.68;79.46
83152;BME280;73381;58.502;8.624;2024-01-25T20:21:36;100371.25;;;-4.51;79.26
83152;BME280;73381;58.502;8.624;2024-01-25T20:24:38;100666.63;;;-2.76;79.66
83152;BME280;73381;58.502;8.624;2024-01-25T20:27:40;100629.88;;;-2.92;78.77
83152;BME280;73381;58.502;8.624;2024-01-25T20:30:42;100463.06;;;-3.92;79.28
83152;BME280;73381;58.502;8.624;2024-01-25T20:33:44;100705.63;;;-2.44;79.11
83152;BME280;73381;58.502;8.624;2024-01-25T20:36:49;100083.97;;;-6.15;78.40
83152;BME280;73381;58.502;8.624;2024-01-25T20:49:20;100687.47;;;-2.42;78.91
83152;BME280;73381;58.502;8.624;2024-01-25T20:52:25;100638.09;;;-2.72;80.18
83152;BME280;73381;58.502;8.624;2024-01-25T20:58:35;100573.13;;;-2.96;79.65
83152;BME280;73381;58.502;8.624;2024-01-25T21:01:39;100663.94;;;-2.28;79.33
83152;BME280;73381;58.502;8.624;2024-01-25T21:04:42;100477.81;;;-3.53;79.40
83152;BME280;73381;58.502;8.624;2024-01-25T21:14:18;100293.19;;;-4.56;78.88
83152;BME280;73381;58.502;8.624;2024-01-25T21:17:29;100469.28;;;-3.57;78.58
83152;BME280;73381;58.502;8.624;2024-01-25T21:20:32;100643.56;;;-2.44;80.29
83152;BME280;73381;58.502;8.624;2024-01-25T21:26:41;100084.47;;;-5.93;79.30
83152;BME280;73381;58.502;8.624;2024-01-25T21:29:45;100653.53;;;-2.27;79.52
83152;BME280;73381;58.502;8.624;2024-01-25T21:36:01;100439.78;;;-3.44;79.71
83152;BME280;73381;58.502;8.624;2024-01-25T21:39:04;100653.94;;;-2.05;79.08
83152;BME280;73381;58.502;8.624;2024-01-25T21:42:08;100596.78;;;-2.33;79.13
83152;BME280;73381;58.502;8.624;2024-01-25T21:45:12;100538.03;;;-2.65;79.19
83152;BME280;73381;58.502;8.624;2024-01-25T21:48:15;100417.88;;;-3.26;79.65
83152;BME280;73381;58.502;8.624;2024-01-25T21:51:18;100615.81;;;-1.98;79.69
83152;BME280;73381;58.502;8.624;2024-01-25T21:57:25;100368.88;;;-3.29;78.82
83152;BME280;73381;58.502;8.624;2024-01-25T22:00:30;100552.34;;;-2.13;79.54
83152;BME280;73381;58.502;8.624;2024-01-25T22:03:33;100361.22;;;-3.32;78.48
83152;BME280;73381;58.502;8.624;2024-01-25T22:09:38;100161.84;;;-4.61;79.39
83152;BME280;73381;58.502;8.624;2024-01-25T22:15:46;100423.75;;;-2.79;79.30
83152;BME280;73381;58.502;8.624;2024-01-25T22:18:55;100583.63;;;-1.87;78.07
83152;BME280;73381;58.502;8.624;2024-01-25T22:22:00;100254.41;;;-4.05;79.35
83152;BME280;73381;58.502;8.624;2024-01-25T22:28:09;100547.16;;;-2.13;79.02
83152;BME280;73381;58.502;8.624;2024-01-25T22:34:25;100357.59;;;-3.25;79.79
83152;BME280;73381;58.502;8.624;2024-01-25T22:37:30;100325.19;;;-3.38;79.62
83152;BME280;73381;58.502;8.624;2024-01-25T22:40:34;100572.34;;;-1.83;79.53
83152;BME280;73381;58.502;8.624;2024-01-25T22:43:37;100562.78;;;-1.81;79.08
83152;BME280;73381;58.502;8.624;2024-01-25T22:46:42;100022.59;;;-4.95;77.91
83152;BME280;73381;58.502;8.624;2024-01-25T22:53:11;100276.34;;;-3.47;78.82
83152;BME280;73381;58.502;8.624;2024-01-25T22:56:18;100327.38;;;-3.20;78.92
83152;BME280;73381;58.502;8.624;2024-01-25T22:59:23;100549.16;;;-1.89;78.92
83152;BME280;73381;58.502;8.624;2024-01-25T23:02:30;100217.66;;;-4.16;79.51
83152;BME280;73381;58.502;8.624;2024-01-25T23:05:37;99982.47;;;-5.47;78.33
83152;BME280;73381;58.502;8.624;2024-01-25T23:08:45;100018.72;;;-5.16;79.99
83152;BME280;73381;58.502;8.624;2024-01-25T23:11:49;100472.88;;;-2.08;79.79
83152;BME280;73381;58.502;8.624;2024-01-25T23:14:53;100112.63;;;-4.47;79.39
83152;BME280;73381;58.502;8.624;2024-01-25T23:17:57;100458.41;;;-2.15;79.41
83152;BME280;73381;58.502;8.624;2024-01-25T23:27:26;100512.72;;;-1.80;78.96
83152;BME280;73381;58.502;8.624;2024-01-25T23:37:10;100283.56;;;-2.89;79.02
83152;BME280;73381;58.502;8.624;2024-01-25T23:40:17;99918.19;;;-5.10;79.36
83152;BME280;73381;58.502;8.624;2024-01-25T23:50:00;100420.78;;;-1.94;79.54